• Join FlightAware (Why Join?)
  • Login
  • US Flag 
Trick or treat! (Boo!!) 
07:39PM EDT


 

Airport Tracker/Info


-or-


 

Live Flight TrackerFlight Track Log ✈ DAL6044 ✈ 16-May-2014 ✈ KPWM - KLGA

Flight Track Log - Related Links

Times and Time Zones

All times are in EDT time to prevent confusion due to time zone crossing. See the DAL6044 flight status page for this flight to view local times or setup timezone preferences in your user account.

Time Position Orientation Groundspeed Altitude Reporting Facility
EDT Latitude Longitude Course Direction KTS MPH feet Rate Location/Type
07:41PM 43.6586 -70.2319 245° Southwest 187 215 2,600  Level Boston Center
07:42PM 43.7242 -70.2239 North 265 305 4,400 2,160 Climbing Boston Center
07:43PM 43.7569 -70.3197 295° West 263 303 7,100 2,520 Climbing Boston Center
07:44PM 43.7367 -70.5468 263° West  Level FlightAware Approximate
07:44PM 43.7628 -70.4167 275° West 254 292 9,700  Level Boston Center
07:45PM 43.7256 -70.6852 264° West  Level FlightAware Approximate
07:45PM 43.7525 -70.5169 262° West 265 305 11,100  Level Boston Center
07:46PM 43.7145 -70.8232 245° Southwest  Level FlightAware Approximate
07:46PM 43.7406 -70.6361 262° West 313 360 12,100  Level Boston Center
07:47PM 43.6779 -70.9332 245° Southwest  Level FlightAware Approximate
07:47PM 43.7264 -70.7739 262° West 333 383 13,600  Level Boston Center
07:49PM 43.6969 -70.8958 252° West 337 388 14,900 1,500 Climbing Boston Center
07:50PM 43.6606 -71.0219 248° West 337 388 16,700 1,440 Climbing Boston Center
07:51PM 43.6353 -71.1450 254° West 336 387 17,900 1,260 Climbing Boston Center
07:52PM 43.6139 -71.2658 256° West 342 394 19,300 1,260 Climbing Boston Center
07:53PM 43.5908 -71.3950 256° West 342 394 20,600 1,200 Climbing Boston Center
07:54PM 43.5667 -71.5261 256° West 347 399 21,800 1,140 Climbing Boston Center
07:55PM 43.5425 -71.6603 256° West 355 409 23,000 960 Climbing Boston Center
07:56PM 43.5167 -71.7933 255° West 358 412 23,900 480 Climbing Boston Center
07:57PM 43.4908 -71.9333 256° West 371 427 24,000  Climbing Boston Center
07:58PM 43.4622 -72.0817 255° West 395 455 24,000  Level Boston Center
07:59PM 43.4283 -72.2642 256° West 405 466 24,000  Level Boston Center
08:00PM 43.3981 -72.4206 255° West 416 479 24,000  Level Boston Center
08:01PM 43.3481 -72.5664 245° Southwest 421 484 24,000  Level Boston Center
08:02PM 43.2878 -72.7017 239° Southwest 420 483 24,000  Level Boston Center
08:03PM 43.2272 -72.8353 238° Southwest 414 476 24,000  Level Boston Center
08:04PM 43.1667 -72.9672 238° Southwest 413 475 24,000  Level Boston Center
08:05PM 43.1058 -73.1017 238° Southwest 412 474 24,000  Level Boston Center
08:06PM 43.0439 -73.2369 238° Southwest 417 480 24,000  Level Boston Center
08:07PM 42.9708 -73.3889 237° Southwest 419 482 24,000  Level Boston Center
08:08PM 42.9017 -73.5164 234° Southwest 419 482 24,000  Level Boston Center
08:09PM 42.8286 -73.6525 234° Southwest 419 482 24,000 -360 Level Boston Center
08:10PM 42.7497 -73.7606 225° Southwest 407 468 23,300 -840 Descending Boston Center
08:11PM 42.6447 -73.7806 188° South 389 448 22,300 -900 Descending Boston Center
08:12PM 42.5425 -73.7603 172° South 374 430 21,600 -660 Descending Boston Center
08:13PM 42.4436 -73.7392 171° South 366 421 21,000 -600 Descending Boston Center
08:14PM 42.3447 -73.7189 171° South 361 415 20,400 -780 Descending Boston Center
08:15PM 42.2408 -73.6989 172° South 352 405 19,500 -720 Descending Boston Center
08:16PM 42.1353 -73.7197 188° South 348 400 19,000 -300 Descending Boston Center
08:17PM 42.0419 -73.7425 190° South 347 399 19,000  Level Boston Center
08:18PM 41.9444 -73.7636 189° South 349 402 19,000 -780 Level Boston Center
08:19PM 41.8414 -73.7878 190° South 350 403 17,500 -1,920 Descending Boston Center
08:20PM 41.7539 -73.8089 190° South 322 371 15,100 -2,400 Descending Boston Center
08:21PM 41.6644 -73.8294 190° South 323 372 12,600 -2,160 Descending Boston Center
08:22PM 41.5753 -73.8506 190° South 326 375 10,700 -1,260 Descending Boston Center
08:23PM 41.4997 -73.8669 189° South 271 312 10,100 -840 Descending Boston Center
08:24PM 41.4339 -73.8794 188° South 224 258 9,000 -600 Descending Boston Center
08:25PM 41.3806 -73.8328 147° Southeast 230 265 8,900 -240 Descending Boston Center
08:26PM 41.3500 -73.8000 141° Southeast 197 227 8,700 -840 Descending New York TRACON
08:27PM 41.3000 -73.7667 153° Southeast 190 219 7,500 -1,080 Descending New York TRACON
08:28PM 41.2500 -73.7167 143° Southeast 193 222 6,500 -960 Descending New York TRACON
08:29PM 41.2333 -73.6667 114° Southeast 219 252 5,700 -780 Descending New York TRACON
08:30PM 41.2500 -73.5833 75° East 212 244 5,100 -300 Descending New York TRACON
08:31PM 41.2500 -73.5167 90° East 205 236 5,100  Level New York TRACON
08:32PM 41.2000 -73.5167 180° South 154 177 5,100 -420 Level New York TRACON
08:33PM 41.1667 -73.5500 217° Southwest 172 198 4,400 -540 Descending New York TRACON
08:34PM 41.1333 -73.5833 217° Southwest 158 182 4,100 -180 Descending New York TRACON
08:35PM 41.1000 -73.6167 217° Southwest 161 185 4,100  Level New York TRACON
08:36PM 41.0500 -73.6500 207° Southwest 161 185 4,100  Level New York TRACON
08:37PM 41.0167 -73.6667 201° Southwest 150 173 4,100 -360 Level New York TRACON
08:38PM 40.9833 -73.7000 217° Southwest 141 162 3,500 -540 Descending New York TRACON
08:39PM 40.9667 -73.7333 236° Southwest 135 155 3,100 -240 Descending New York TRACON
08:40PM 40.9333 -73.7500 201° Southwest 124 143 3,100 -240 Level New York TRACON
08:41PM 40.9000 -73.7667 201° Southwest 118 136 2,700 -540 Descending New York TRACON
08:42PM 40.8667 -73.8000 217° Southwest 117 135 2,100 -600 Descending New York TRACON
08:43PM 40.8500 -73.8167 217° Southwest 116 133 1,500 -660 Descending New York TRACON
08:44PM 40.8167 -73.8500 217° Southwest 129 148 800 -720 Descending New York TRACON